Time;durP1;ratioP1;P1;durP2;ratioP2;P2;SDS_P1;SDS_P2;PMS_P1;PMS_P2;Temp;Humidity;BMP_temperature;BMP_pressure;BME280_temperature;BME280_humidity;BME280_pressure;Samples;Min_cycle;Max_cycle;Signal;HPM_P1;HPM_P2
2022/07/18 00:02:09;;;;;;;6.88;2.95;;;27.80;48.70;;;;;;5007616;28;20069;-58
2022/07/18 00:04:35;;;;;;;7.28;2.63;;;27.80;48.70;;;;;;5005248;28;20037;-58
2022/07/18 00:07:00;;;;;;;8.25;2.90;;;27.80;48.80;;;;;;5005626;28;20025;-58
2022/07/18 00:09:26;;;;;;;7.45;2.78;;;27.80;48.80;;;;;;5007992;28;20041;-58
2022/07/18 00:11:52;;;;;;;6.93;2.67;;;27.80;48.80;;;;;;5006818;28;20518;-58
2022/07/18 00:14:19;;;;;;;6.20;2.63;;;27.80;48.80;;;;;;5001470;28;20030;-58
2022/07/18 00:16:44;;;;;;;6.75;2.78;;;27.80;48.80;;;;;;5005373;28;20026;-58
2022/07/18 00:19:10;;;;;;;7.47;2.90;;;27.70;48.80;;;;;;5004470;28;20061;-58
2022/07/18 00:21:35;;;;;;;9.07;2.90;;;27.70;48.90;;;;;;5005786;28;20034;-58
2022/07/18 00:24:01;;;;;;;6.88;2.75;;;27.70;48.80;;;;;;5007078;28;20025;-58
2022/07/18 00:26:27;;;;;;;7.43;2.90;;;27.80;49.00;;;;;;5003844;28;20088;-57
2022/07/18 00:28:53;;;;;;;7.15;2.72;;;27.70;48.90;;;;;;5005571;28;20137;-58
2022/07/18 00:31:18;;;;;;;7.53;2.83;;;27.80;49.00;;;;;;5007653;28;20477;-58
2022/07/18 00:33:44;;;;;;;7.15;2.80;;;27.70;49.00;;;;;;5005228;28;20025;-58
2022/07/18 00:36:10;;;;;;;8.45;2.80;;;27.70;49.00;;;;;;5006092;28;20033;-58
2022/07/18 00:38:35;;;;;;;8.30;2.97;;;27.70;49.10;;;;;;5002320;28;20117;-58
2022/07/18 00:41:01;;;;;;;5.95;2.60;;;27.70;49.10;;;;;;5005336;28;20458;-58
2022/07/18 00:43:27;;;;;;;7.22;2.75;;;27.70;49.00;;;;;;5004216;28;20429;-58
2022/07/18 00:45:52;;;;;;;8.48;2.70;;;27.70;49.00;;;;;;5005390;28;20048;-58
2022/07/18 00:48:18;;;;;;;6.75;2.85;;;27.70;49.10;;;;;;5005471;28;20169;-58
2022/07/18 00:50:44;;;;;;;6.50;2.50;;;27.70;49.10;;;;;;5006787;28;20022;-58
2022/07/18 00:53:10;;;;;;;5.80;2.63;;;27.70;49.10;;;;;;5006468;28;20038;-58
2022/07/18 00:55:38;;;;;;;6.25;2.60;;;27.70;49.10;;;;;;5005456;28;20421;-58
2022/07/18 00:58:03;;;;;;;6.10;2.50;;;27.70;49.20;;;;;;5004118;28;20422;-58
2022/07/18 01:03:13;;;;;;;5.93;2.25;;;27.60;49.10;;;;;;5006852;28;20073;-58
2022/07/18 01:05:39;;;;;;;5.90;2.50;;;27.60;49.10;;;;;;5004792;28;20057;-58
2022/07/18 01:08:04;;;;;;;7.43;2.63;;;27.60;49.10;;;;;;5005497;28;20045;-58
2022/07/18 01:10:30;;;;;;;5.60;2.50;;;27.60;49.20;;;;;;5003507;28;20049;-58
2022/07/18 01:12:55;;;;;;;7.90;2.83;;;27.60;49.20;;;;;;5006396;28;20034;-58
2022/07/18 01:15:21;;;;;;;5.25;2.40;;;27.60;49.20;;;;;;5003163;28;20028;-58
2022/07/18 01:17:47;;;;;;;7.05;2.90;;;27.60;49.20;;;;;;5004663;28;20025;-58
2022/07/18 01:20:12;;;;;;;6.05;2.58;;;27.60;49.20;;;;;;5006040;28;20045;-58
2022/07/18 01:22:41;;;;;;;5.28;2.42;;;27.60;49.30;;;;;;5006136;28;20434;-58
2022/07/18 01:25:08;;;;;;;5.28;2.58;;;27.60;49.30;;;;;;5007266;28;20450;-58
2022/07/18 01:27:34;;;;;;;7.43;2.42;;;27.50;49.30;;;;;;5005616;28;20037;-58
2022/07/18 01:30:00;;;;;;;5.82;2.78;;;27.60;49.30;;;;;;5004638;28;20034;-58
2022/07/18 01:32:26;;;;;;;6.72;2.60;;;27.50;49.30;;;;;;5006076;28;20037;-58
2022/07/18 01:34:52;;;;;;;6.97;2.67;;;27.50;49.30;;;;;;5004352;28;20030;-58
2022/07/18 01:37:18;;;;;;;5.88;2.58;;;27.50;49.30;;;;;;5004063;28;20026;-58
2022/07/18 01:39:44;;;;;;;5.88;2.42;;;27.50;49.30;;;;;;5003815;28;20161;-58
2022/07/18 01:42:10;;;;;;;7.53;2.55;;;27.50;49.30;;;;;;5005154;28;20037;-58
2022/07/18 01:44:36;;;;;;;6.93;2.70;;;27.50;49.40;;;;;;5006686;28;20034;-58
2022/07/18 01:47:03;;;;;;;5.57;2.47;;;27.50;49.30;;;;;;5003206;28;20434;-58
2022/07/18 01:49:29;;;;;;;6.53;2.50;;;27.50;49.30;;;;;;5004845;28;20402;-58
2022/07/18 01:51:55;;;;;;;6.15;2.58;;;27.50;49.30;;;;;;5004187;28;20036;-58
2022/07/18 01:54:22;;;;;;;6.38;2.55;;;27.50;49.40;;;;;;5006326;28;20018;-58
2022/07/18 01:56:48;;;;;;;5.38;2.35;;;27.40;49.30;;;;;;5003550;28;20077;-58
2022/07/18 01:59:13;;;;;;;6.53;2.70;;;27.50;49.40;;;;;;5008086;28;20062;-58
2022/07/18 02:01:39;;;;;;;6.13;2.40;;;27.40;49.30;;;;;;5008909;28;20127;-58
2022/07/18 02:04:04;;;;;;;6.55;2.60;;;27.50;49.40;;;;;;5008566;28;20163;-58
2022/07/18 02:06:30;;;;;;;6.18;2.42;;;27.40;49.40;;;;;;5007903;28;20159;-58
2022/07/18 02:08:56;;;;;;;5.05;2.45;;;27.40;49.30;;;;;;5009300;28;20037;-58
2022/07/18 02:11:22;;;;;;;6.45;2.70;;;27.40;49.40;;;;;;5007992;28;20053;-58
2022/07/18 02:13:47;;;;;;;5.82;2.38;;;27.40;49.40;;;;;;5009110;28;20030;-58
2022/07/18 02:16:13;;;;;;;5.25;2.47;;;27.40;49.40;;;;;;5009269;28;20026;-58
2022/07/18 02:18:39;;;;;;;6.70;2.30;;;27.40;50.50;;;;;;5007701;28;20029;-58
2022/07/18 02:21:05;;;;;;;5.47;2.45;;;27.40;49.50;;;;;;5008724;28;20030;-58
2022/07/18 02:23:30;;;;;;;5.82;2.45;;;27.40;49.40;;;;;;5007701;28;20065;-58
2022/07/18 02:25:56;;;;;;;6.32;2.63;;;27.40;49.50;;;;;;5006928;28;20390;-58
2022/07/18 02:28:21;;;;;;;5.88;2.40;;;27.40;49.50;;;;;;5007258;28;20029;-58
2022/07/18 02:30:50;;;;;;;4.45;2.30;;;27.30;49.40;;;;;;5009016;28;20042;-58
2022/07/18 02:33:16;;;;;;;5.50;2.42;;;27.30;49.50;;;;;;5010036;28;20060;-58
2022/07/18 02:35:42;;;;;;;4.93;2.60;;;27.40;49.60;;;;;;5008479;28;20554;-58
2022/07/18 02:38:07;;;;;;;4.93;2.45;;;27.30;49.50;;;;;;5007040;28;20092;-58
2022/07/18 02:40:33;;;;;;;6.25;2.67;;;27.30;49.50;;;;;;5008226;28;20503;-58
2022/07/18 02:42:59;;;;;;;5.30;2.33;;;27.30;49.50;;;;;;5007503;28;20360;-58
2022/07/18 02:45:25;;;;;;;5.28;2.42;;;27.30;49.60;;;;;;5006888;28;20380;-58
2022/07/18 02:47:50;;;;;;;3.75;2.20;;;27.30;49.60;;;;;;5007708;28;20037;-58
2022/07/18 02:50:16;;;;;;;5.18;2.25;;;27.30;49.60;;;;;;5009489;28;20041;-58
2022/07/18 02:52:42;;;;;;;5.78;2.45;;;27.30;49.60;;;;;;5010625;28;20466;-58
2022/07/18 02:55:08;;;;;;;4.70;2.25;;;27.30;49.60;;;;;;5006593;28;20057;-58
2022/07/18 02:57:34;;;;;;;4.03;2.25;;;27.30;49.60;;;;;;5006972;28;20421;-58
2022/07/18 03:00:00;;;;;;;7.43;2.60;;;27.30;49.60;;;;;;5007593;28;20036;-58
2022/07/18 03:02:25;;;;;;;5.30;2.40;;;27.30;49.60;;;;;;5006051;28;20510;-58
2022/07/18 03:04:51;;;;;;;6.15;2.50;;;27.20;49.60;;;;;;5009438;28;20064;-58
2022/07/18 03:07:17;;;;;;;4.78;2.40;;;27.20;49.60;;;;;;5008397;28;20054;-58
2022/07/18 03:09:42;;;;;;;5.88;2.63;;;27.20;49.60;;;;;;5006301;28;20034;-58
2022/07/18 03:12:08;;;;;;;3.83;2.10;;;27.20;49.70;;;;;;5003470;28;20030;-58
2022/07/18 03:14:35;;;;;;;3.97;2.20;;;27.20;49.60;;;;;;5008217;28;20080;-58
2022/07/18 03:17:01;;;;;;;4.53;2.10;;;27.20;49.70;;;;;;5007362;28;20034;-58
2022/07/18 03:19:26;;;;;;;4.47;2.35;;;27.20;49.70;;;;;;5007458;28;20141;-58
2022/07/18 03:21:52;;;;;;;4.65;2.40;;;27.20;49.70;;;;;;5006529;28;20426;-58
2022/07/18 03:24:17;;;;;;;3.78;2.05;;;27.20;49.70;;;;;;5008063;28;20552;-58
2022/07/18 03:26:43;;;;;;;5.40;2.20;;;27.20;49.70;;;;;;5006553;28;20513;-58
2022/07/18 03:29:10;;;;;;;4.30;2.20;;;27.20;49.70;;;;;;5007236;28;20026;-58
2022/07/18 03:31:36;;;;;;;4.80;2.30;;;27.20;49.80;;;;;;5006118;28;20037;-58
2022/07/18 03:34:01;;;;;;;4.68;2.33;;;27.20;49.70;;;;;;5006383;28;20029;-58
2022/07/18 03:36:27;;;;;;;4.78;2.50;;;27.20;49.80;;;;;;5007332;28;20034;-58
2022/07/18 03:38:52;;;;;;;4.38;2.47;;;27.10;49.70;;;;;;5008912;28;20060;-58
2022/07/18 03:41:18;;;;;;;4.50;2.28;;;27.20;49.80;;;;;;5007455;28;20037;-58
2022/07/18 03:43:44;;;;;;;4.82;2.30;;;27.10;50.80;;;;;;5007063;28;20042;-58
2022/07/18 03:46:09;;;;;;;6.75;2.40;;;27.10;49.90;;;;;;5004784;28;20703;-58
2022/07/18 03:48:35;;;;;;;4.38;2.38;;;27.10;49.90;;;;;;5005821;28;20423;-58
2022/07/18 03:51:02;;;;;;;4.13;2.15;;;27.10;49.80;;;;;;5006454;28;20449;-58
2022/07/18 03:53:28;;;;;;;6.40;2.50;;;27.10;49.80;;;;;;5005920;28;20026;-58
2022/07/18 03:55:54;;;;;;;5.30;2.40;;;27.10;49.90;;;;;;5003509;28;20097;-58
2022/07/18 03:58:19;;;;;;;4.30;2.17;;;27.10;49.90;;;;;;5001091;28;20426;-58
2022/07/18 04:00:45;;;;;;;4.57;2.30;;;27.10;49.90;;;;;;5004309;28;20112;-58
2022/07/18 04:03:11;;;;;;;5.05;2.25;;;27.10;49.90;;;;;;5004119;28;20160;-58
2022/07/18 04:05:36;;;;;;;5.10;2.17;;;27.00;49.90;;;;;;5002117;28;20557;-58
2022/07/18 04:08:02;;;;;;;3.75;2.15;;;27.10;49.90;;;;;;5004291;28;20242;-58
2022/07/18 04:10:28;;;;;;;4.45;2.17;;;27.00;49.80;;;;;;5006467;28;20056;-58
2022/07/18 04:12:54;;;;;;;5.80;2.30;;;27.10;49.90;;;;;;5004040;28;20018;-58
2022/07/18 04:15:21;;;;;;;4.10;2.20;;;27.10;50.00;;;;;;5004559;28;20018;-58
2022/07/18 04:17:47;;;;;;;3.35;2.20;;;27.00;49.90;;;;;;5005280;28;20502;-58
2022/07/18 04:20:13;;;;;;;4.53;2.15;;;27.00;50.00;;;;;;5003913;28;20168;-58
2022/07/18 04:22:49;;;;;;;4.35;2.30;;;27.00;49.90;;;;;;5004173;28;20026;-58
2022/07/18 04:25:15;;;;;;;3.22;1.98;;;27.00;50.00;;;;;;5001031;28;20030;-58
2022/07/18 04:27:41;;;;;;;3.50;2.15;;;27.00;50.00;;;;;;5004735;28;20531;-58
2022/07/18 04:30:07;;;;;;;4.03;2.25;;;27.00;50.10;;;;;;5003670;28;20084;-58
2022/07/18 04:32:33;;;;;;;3.63;2.20;;;27.00;50.30;;;;;;5004782;28;20384;-58
2022/07/18 04:34:59;;;;;;;4.13;1.90;;;27.00;50.20;;;;;;5004531;28;20041;-58
2022/07/18 04:37:25;;;;;;;3.65;2.20;;;27.00;50.20;;;;;;5002046;28;20075;-58
2022/07/18 04:39:50;;;;;;;4.57;1.95;;;27.00;50.20;;;;;;5006638;28;20180;-58
2022/07/18 04:42:16;;;;;;;4.38;2.40;;;27.00;50.10;;;;;;5003663;28;20037;-58
2022/07/18 04:44:42;;;;;;;5.15;2.00;;;27.00;50.10;;;;;;5005797;28;20033;-58
2022/07/18 04:47:07;;;;;;;5.05;2.25;;;27.00;50.20;;;;;;5004398;28;20030;-59
2022/07/18 04:49:33;;;;;;;4.93;2.22;;;26.90;50.10;;;;;;5029876;28;20046;-58
2022/07/18 04:51:59;;;;;;;3.70;2.00;;;26.90;50.20;;;;;;5004979;28;20042;-58
2022/07/18 04:54:25;;;;;;;4.32;2.20;;;26.90;50.20;;;;;;5004154;28;20228;-58
2022/07/18 04:56:50;;;;;;;4.80;2.20;;;26.90;50.20;;;;;;5001651;28;20064;-58
2022/07/18 04:59:16;;;;;;;5.00;2.08;;;26.90;50.20;;;;;;5002558;28;20032;-58
2022/07/18 05:01:42;;;;;;;4.63;2.30;;;26.90;50.20;;;;;;5003413;28;20034;-58
2022/07/18 05:04:07;;;;;;;5.13;2.20;;;26.90;50.30;;;;;;5002337;28;20561;-58
2022/07/18 05:06:33;;;;;;;4.15;1.92;;;26.90;50.30;;;;;;5004682;28;20373;-58
2022/07/18 05:08:58;;;;;;;5.03;2.20;;;26.90;50.20;;;;;;5003115;28;20028;-58
2022/07/18 05:11:24;;;;;;;5.07;2.13;;;26.90;50.20;;;;;;5004993;28;20030;-58
2022/07/18 05:13:50;;;;;;;4.55;2.30;;;26.90;51.30;;;;;;5003792;28;20041;-58
2022/07/18 05:16:15;;;;;;;3.00;1.90;;;26.90;50.40;;;;;;5015344;28;20516;-58
2022/07/18 05:18:41;;;;;;;6.85;2.22;;;26.90;50.40;;;;;;5002695;28;20032;-58
2022/07/18 05:21:07;;;;;;;5.32;2.30;;;26.90;50.40;;;;;;4999741;28;20024;-58
2022/07/18 05:23:33;;;;;;;5.25;2.13;;;26.90;50.30;;;;;;5004511;28;20160;-58
2022/07/18 05:25:58;;;;;;;6.80;2.38;;;26.80;50.50;;;;;;5003744;28;20022;-58
2022/07/18 05:28:24;;;;;;;5.65;2.20;;;26.80;50.40;;;;;;5004555;28;20403;-58
2022/07/18 05:30:50;;;;;;;5.00;2.05;;;26.80;50.40;;;;;;5005663;28;20181;-58
2022/07/18 05:33:15;;;;;;;4.97;2.08;;;26.80;50.40;;;;;;5004145;28;20534;-58
2022/07/18 05:35:41;;;;;;;6.35;2.30;;;26.80;50.40;;;;;;5003191;28;20037;-58
2022/07/18 05:38:07;;;;;;;6.15;2.30;;;26.80;50.40;;;;;;5004720;28;20030;-58
2022/07/18 05:40:32;;;;;;;6.78;2.10;;;26.80;50.40;;;;;;5003023;28;20059;-58
2022/07/18 05:42:58;;;;;;;7.45;2.17;;;26.80;50.40;;;;;;5005961;28;20029;-58
2022/07/18 05:45:24;;;;;;;4.95;2.20;;;26.80;50.40;;;;;;5005517;28;20065;-58
2022/07/18 05:47:50;;;;;;;5.07;2.28;;;26.80;50.40;;;;;;5003702;28;20032;-58
2022/07/18 05:50:16;;;;;;;5.53;2.17;;;26.80;50.50;;;;;;5005848;28;20132;-58
2022/07/18 05:52:41;;;;;;;4.93;2.10;;;26.80;50.50;;;;;;5003837;28;20105;-58
2022/07/18 05:55:08;;;;;;;3.78;2.10;;;26.80;50.50;;;;;;5003728;28;20041;-58
2022/07/18 05:57:34;;;;;;;4.65;2.17;;;26.80;50.50;;;;;;5006563;28;20048;-58
2022/07/18 06:00:00;;;;;;;9.55;2.30;;;26.80;50.50;;;;;;5005466;28;20018;-58
2022/07/18 06:02:25;;;;;;;7.68;2.55;;;26.80;50.60;;;;;;5004214;28;20568;-58
2022/07/18 06:04:51;;;;;;;4.97;1.92;;;26.80;50.60;;;;;;5005249;28;20368;-58
2022/07/18 06:07:17;;;;;;;5.60;2.08;;;26.80;50.60;;;;;;5003027;28;20030;-58
2022/07/18 06:09:42;;;;;;;5.22;1.90;;;26.70;50.50;;;;;;5004749;28;20145;-57
2022/07/18 06:12:08;;;;;;;5.55;2.00;;;26.80;50.60;;;;;;5004278;28;20068;-58
2022/07/18 06:14:34;;;;;;;5.72;2.08;;;26.70;50.70;;;;;;4999503;28;20019;-58
2022/07/18 06:16:59;;;;;;;4.28;2.17;;;26.70;50.50;;;;;;5005241;28;20029;-58
2022/07/18 06:19:45;;;;;;;5.15;2.08;;;26.70;50.50;;;;;;5005943;28;20073;-58
2022/07/18 06:22:10;;;;;;;4.80;1.90;;;26.70;50.50;;;;;;5003517;28;20034;-58
2022/07/18 06:24:36;;;;;;;5.28;2.13;;;26.70;50.60;;;;;;5004942;28;20033;-58
2022/07/18 06:27:02;;;;;;;5.75;2.30;;;26.70;50.50;;;;;;5003796;28;20033;-57
2022/07/18 06:29:27;;;;;;;4.63;1.95;;;26.70;50.60;;;;;;5002520;28;20128;-58
2022/07/18 06:31:53;;;;;;;5.70;2.50;;;26.70;50.60;;;;;;5002940;28;20058;-58
2022/07/18 06:34:18;;;;;;;5.00;2.00;;;26.70;50.60;;;;;;5002727;28;20030;-58
2022/07/18 06:36:44;;;;;;;4.70;2.03;;;26.70;50.60;;;;;;5004692;28;20037;-58
2022/07/18 06:39:11;;;;;;;4.22;2.00;;;26.70;50.70;;;;;;5002182;28;20026;-58
2022/07/18 06:41:39;;;;;;;4.40;1.92;;;26.70;50.70;;;;;;5004196;28;20060;-58
2022/07/18 06:44:05;;;;;;;5.05;1.95;;;26.70;50.60;;;;;;5006232;28;20510;-57
2022/07/18 06:46:31;;;;;;;3.85;1.90;;;26.70;50.70;;;;;;5007541;28;20061;-58
2022/07/18 06:48:57;;;;;;;9.07;2.45;;;26.70;50.60;;;;;;5008956;28;20117;-58
2022/07/18 06:51:22;;;;;;;5.68;2.30;;;26.70;50.70;;;;;;5008160;28;20034;-58
2022/07/18 06:53:48;;;;;;;4.68;2.30;;;26.70;50.60;;;;;;5008321;28;20101;-58
2022/07/18 06:56:14;;;;;;;5.25;2.10;;;26.70;50.70;;;;;;5006666;28;20102;-58
2022/07/18 06:58:39;;;;;;;3.80;1.80;;;26.70;50.70;;;;;;5006957;28;20455;-58
2022/07/18 07:01:06;;;;;;;5.53;2.20;;;26.70;50.70;;;;;;5007993;28;20535;-58
2022/07/18 07:03:32;;;;;;;3.33;1.70;;;26.70;50.70;;;;;;5006983;28;20046;-58
2022/07/18 07:05:58;;;;;;;3.75;2.00;;;26.70;50.70;;;;;;5008206;28;20123;-58
2022/07/18 07:08:23;;;;;;;6.18;1.85;;;26.70;50.70;;;;;;5007541;28;20411;-57
2022/07/18 07:10:49;;;;;;;5.43;2.00;;;26.70;50.60;;;;;;5009956;28;20147;-58
2022/07/18 07:13:15;;;;;;;6.25;2.20;;;26.70;50.70;;;;;;5003075;28;20030;-58
2022/07/18 07:15:42;;;;;;;4.30;2.17;;;26.70;50.60;;;;;;5007269;28;20057;-58
2022/07/18 07:18:08;;;;;;;5.55;2.00;;;26.70;50.70;;;;;;5006743;28;20494;-58
2022/07/18 07:20:34;;;;;;;4.60;2.00;;;26.70;50.70;;;;;;5009782;28;20049;-58
2022/07/18 07:23:04;;;;;;;4.75;2.20;;;26.70;50.70;;;;;;5006831;28;20560;-58
2022/07/18 07:25:30;;;;;;;3.97;2.00;;;26.70;50.70;;;;;;5005499;28;20097;-58
2022/07/18 07:27:56;;;;;;;5.43;1.98;;;26.70;50.60;;;;;;5007105;28;20123;-58
2022/07/18 07:30:21;;;;;;;9.02;2.15;;;26.70;50.60;;;;;;5006014;28;20045;-59
2022/07/18 07:32:47;;;;;;;5.15;2.33;;;26.70;50.70;;;;;;5006755;28;20022;-58
2022/07/18 07:35:14;;;;;;;6.65;2.05;;;26.70;50.70;;;;;;5005415;28;20036;-57
2022/07/18 07:37:41;;;;;;;3.95;1.90;;;26.70;50.80;;;;;;5007286;28;20368;-58
2022/07/18 07:40:07;;;;;;;5.38;2.03;;;26.70;50.70;;;;;;5004193;28;20483;-58
2022/07/18 07:42:33;;;;;;;4.15;2.00;;;26.60;50.70;;;;;;5007017;28;20486;-58
2022/07/18 07:44:58;;;;;;;5.65;2.00;;;26.70;50.70;;;;;;5006985;28;20069;-58
2022/07/18 07:47:24;;;;;;;4.07;2.00;;;26.70;50.70;;;;;;5004346;28;20021;-58
2022/07/18 07:49:49;;;;;;;4.63;1.85;;;26.70;50.70;;;;;;5004885;28;20038;-58
2022/07/18 07:52:17;;;;;;;5.68;2.20;;;26.70;50.80;;;;;;5006933;28;20498;-58
2022/07/18 07:54:44;;;;;;;2.53;1.80;;;26.70;50.70;;;;;;5007363;28;20066;-57
2022/07/18 07:57:10;;;;;;;6.03;2.10;;;26.70;50.70;;;;;;5002139;28;20038;-58
2022/07/18 07:59:36;;;;;;;3.53;2.15;;;26.70;50.70;;;;;;5007251;28;20022;-58
2022/07/18 08:02:02;;;;;;;3.45;1.80;;;26.70;50.60;;;;;;5005899;28;20049;-58
2022/07/18 08:04:28;;;;;;;4.72;2.03;;;26.70;50.60;;;;;;5005218;28;20026;-57
2022/07/18 08:06:53;;;;;;;5.25;2.10;;;26.70;50.50;;;;;;5006254;28;20029;-58
2022/07/18 08:09:19;;;;;;;5.65;2.20;;;26.70;50.50;;;;;;5007449;28;20037;-58
2022/07/18 08:11:44;;;;;;;4.95;1.85;;;26.70;50.50;;;;;;5004162;28;20025;-58
2022/07/18 08:14:10;;;;;;;4.25;2.00;;;26.70;50.50;;;;;;5001503;28;20060;-58
2022/07/18 08:16:36;;;;;;;5.20;2.10;;;26.70;50.40;;;;;;5004983;28;20045;-58
2022/07/18 08:19:01;;;;;;;4.97;2.10;;;26.70;50.40;;;;;;5005548;28;20120;-58
2022/07/18 08:21:27;;;;;;;4.55;2.13;;;26.70;50.40;;;;;;5003982;28;20037;-58
2022/07/18 08:23:53;;;;;;;4.50;2.03;;;26.70;50.40;;;;;;5006389;28;20026;-58
2022/07/18 08:26:18;;;;;;;4.13;2.03;;;26.70;50.40;;;;;;5005949;28;20029;-58
2022/07/18 08:28:44;;;;;;;5.70;2.08;;;26.70;50.40;;;;;;5003449;28;20026;-58
2022/07/18 08:31:10;;;;;;;4.78;2.22;;;26.70;50.40;;;;;;5006685;28;20044;-57
2022/07/18 08:33:35;;;;;;;3.78;2.10;;;26.70;50.40;;;;;;5006044;28;20041;-58
2022/07/18 08:36:01;;;;;;;4.47;2.03;;;26.70;50.40;;;;;;5004125;28;20044;-58
2022/07/18 08:38:27;;;;;;;5.25;2.13;;;26.70;50.40;;;;;;5005379;28;20023;-58
2022/07/18 08:40:53;;;;;;;4.13;1.80;;;26.70;50.40;;;;;;5002079;28;20030;-58
2022/07/18 08:43:18;;;;;;;4.00;2.00;;;26.70;50.40;;;;;;5005649;28;20032;-57
2022/07/18 08:45:44;;;;;;;3.42;1.95;;;26.70;50.40;;;;;;5005578;28;20494;-58
2022/07/18 08:48:14;;;;;;;4.10;2.13;;;26.70;50.50;;;;;;5004721;28;20038;-58
2022/07/18 08:50:47;;;;;;;2.97;1.83;;;26.70;50.40;;;;;;5000102;28;20052;-58
2022/07/18 08:53:13;;;;;;;4.25;2.30;;;26.70;50.40;;;;;;5002380;28;20105;-58
2022/07/18 08:55:39;;;;;;;4.28;2.00;;;26.70;50.50;;;;;;5005466;28;20447;-58
2022/07/18 08:58:05;;;;;;;4.88;2.40;;;26.70;50.50;;;;;;5005421;28;20029;-58
2022/07/18 09:00:30;;;;;;;4.20;2.20;;;26.80;50.60;;;;;;5005102;28;20035;-57
2022/07/18 09:03:00;;;;;;;5.20;2.33;;;26.80;50.50;;;;;;5004665;28;20449;-58
2022/07/18 09:05:25;;;;;;;3.42;2.00;;;26.80;50.50;;;;;;5003838;28;20033;-58
2022/07/18 09:07:51;;;;;;;4.72;2.20;;;26.80;50.50;;;;;;5003105;28;20088;-57
2022/07/18 09:10:17;;;;;;;3.83;2.00;;;26.80;50.50;;;;;;5003554;28;20073;-58
2022/07/18 09:13:03;;;;;;;5.38;2.30;;;26.80;50.50;;;;;;5003486;28;20097;-58
2022/07/18 09:15:28;;;;;;;4.93;2.10;;;26.80;50.50;;;;;;5003669;28;20602;-58
2022/07/18 09:17:55;;;;;;;6.05;2.10;;;26.80;50.50;;;;;;5005310;28;20029;-58
2022/07/18 09:20:22;;;;;;;3.50;2.10;;;26.90;50.50;;;;;;5003304;28;20062;-58
2022/07/18 09:22:47;;;;;;;5.30;2.13;;;26.80;50.40;;;;;;5006182;28;20587;-58
2022/07/18 09:25:14;;;;;;;5.95;2.10;;;26.90;50.50;;;;;;5006435;28;20029;-58
2022/07/18 09:27:43;;;;;;;5.32;2.10;;;26.90;50.50;;;;;;5003530;28;20023;-58
2022/07/18 09:30:17;;;;;;;6.18;2.10;;;26.90;50.50;;;;;;5002955;28;20057;-58
2022/07/18 09:32:51;;;;;;;;;;;26.90;50.40;;;;;;5003944;28;20030;-58
2022/07/18 09:35:28;;;;;;;4.35;2.25;;;26.90;50.40;;;;;;5003648;28;19948;-58
2022/07/18 09:38:00;;;;;;;4.60;2.28;;;26.90;50.40;;;;;;5002182;28;20084;-58
2022/07/18 09:40:26;;;;;;;3.25;2.08;;;26.90;51.50;;;;;;5002849;28;20117;-58
2022/07/18 09:42:52;;;;;;;5.15;2.10;;;26.90;50.40;;;;;;5005536;28;20109;-57
2022/07/18 09:45:29;;;;;;;4.07;2.17;;;26.90;50.40;;;;;;5002612;28;20033;-58
2022/07/18 09:48:00;;;;;;;4.05;1.95;;;27.00;51.50;;;;;;5001543;28;20062;-58
2022/07/18 09:50:34;;;;;;;4.20;2.00;;;27.00;50.50;;;;;;5001379;28;20120;-58
2022/07/18 09:53:02;;;;;;;4.78;2.00;;;26.90;50.40;;;;;;4999113;28;20029;-57
2022/07/18 09:55:29;;;;;;;7.70;2.53;;;27.00;50.50;;;;;;4998168;28;20422;-58
2022/07/18 09:58:05;;;;;;;3.55;2.03;;;27.00;50.50;;;;;;5002381;28;20026;-58
2022/07/18 10:00:34;;;;;;;4.78;2.00;;;27.00;50.50;;;;;;5002937;28;20585;-58
2022/07/18 10:03:00;;;;;;;6.10;2.03;;;27.00;50.40;;;;;;5003023;28;20041;-58
2022/07/18 10:05:30;;;;;;;5.03;2.25;;;27.00;50.50;;;;;;4999882;28;20037;-58
2022/07/18 10:07:56;;;;;;;4.15;2.00;;;27.00;50.50;;;;;;5001004;28;20049;-58
2022/07/18 10:10:24;;;;;;;8.70;2.50;;;27.00;50.50;;;;;;5004168;28;20614;-58
2022/07/18 10:12:54;;;;;;;6.40;2.35;;;27.10;50.60;;;;;;5002958;28;20404;-58
2022/07/18 10:15:29;;;;;;;7.20;2.22;;;27.10;50.60;;;;;;5003444;28;20528;-58
2022/07/18 10:17:56;;;;;;;5.50;2.15;;;27.10;50.60;;;;;;5000185;28;20037;-58
2022/07/18 10:20:44;;;;;;;8.25;2.45;;;27.10;50.60;;;;;;5005632;28;20092;-58
2022/07/18 10:23:19;;;;;;;6.05;2.40;;;27.10;50.70;;;;;;5017611;28;20034;-58
2022/07/18 10:26:10;;;;;;;6.32;2.28;;;27.10;50.70;;;;;;5007262;28;20021;-58
2022/07/18 10:28:35;;;;;;;7.45;2.40;;;27.10;50.80;;;;;;5005897;28;20027;-58
2022/07/18 10:31:15;;;;;;;5.03;2.30;;;27.20;50.90;;;;;;5006763;28;20098;-58
2022/07/18 10:33:46;;;;;;;5.68;2.15;;;27.20;50.90;;;;;;5008318;28;20041;-58
2022/07/18 10:36:22;;;;;;;6.13;2.30;;;27.20;51.00;;;;;;5007654;28;20030;-58
2022/07/18 10:39:10;;;;;;;5.97;2.35;;;27.20;51.00;;;;;;5008371;28;20054;-58
2022/07/18 10:41:39;;;;;;;6.55;2.28;;;27.20;50.90;;;;;;5003061;28;20396;-58
2022/07/18 10:44:25;;;;;;;5.90;2.40;;;27.20;51.00;;;;;;5005311;28;20044;-58
2022/07/18 10:47:03;;;;;;;7.43;2.33;;;27.20;50.90;;;;;;5009311;28;20066;-58
2022/07/18 10:49:52;;;;;;;7.55;2.30;;;27.30;51.00;;;;;;5007438;28;20073;-58
2022/07/18 10:52:41;;;;;;;6.47;2.38;;;27.30;51.00;;;;;;4992765;28;20038;-58
2022/07/18 10:55:16;;;;;;;6.45;2.08;;;27.30;51.00;;;;;;4995406;28;20081;-58
2022/07/18 10:57:42;;;;;;;;;;;27.30;51.00;;;;;;5008017;28;20034;-58
2022/07/18 11:00:24;;;;;;;5.70;2.33;;;27.30;51.00;;;;;;5002732;28;20051;-58
2022/07/18 11:03:08;;;;;;;5.50;2.33;;;27.30;51.00;;;;;;5007207;28;20029;-58
2022/07/18 11:05:53;;;;;;;7.45;2.40;;;27.30;51.10;;;;;;5005886;28;20022;-58
2022/07/18 11:08:19;;;;;;;5.63;2.10;;;27.30;51.00;;;;;;5008008;28;20022;-58
2022/07/18 11:10:50;;;;;;;5.68;2.10;;;27.30;51.00;;;;;;5008196;28;20045;-58
2022/07/18 11:13:28;;;;;;;4.78;2.15;;;27.40;51.10;;;;;;5007827;28;20034;-58
2022/07/18 11:15:57;;;;;;;5.70;2.22;;;27.30;50.90;;;;;;5007208;28;20034;-58
2022/07/18 11:18:22;;;;;;;5.90;2.28;;;27.40;51.00;;;;;;5008548;28;20034;-58
2022/07/18 11:20:48;;;;;;;6.45;2.15;;;27.40;51.00;;;;;;5006373;28;20052;-58
2022/07/18 11:23:25;;;;;;;5.97;2.00;;;27.40;51.00;;;;;;5004963;28;20026;-57
2022/07/18 11:25:54;;;;;;;4.57;2.08;;;27.40;51.00;;;;;;5006077;28;20026;-58
2022/07/18 11:28:20;;;;;;;6.88;2.22;;;27.40;51.00;;;;;;5007363;28;20031;-58
2022/07/18 11:30:45;;;;;;;6.43;2.17;;;27.40;51.00;;;;;;5002543;28;20117;-58
2022/07/18 11:33:25;;;;;;;6.13;2.20;;;27.40;50.90;;;;;;5005628;28;20628;-58
2022/07/18 11:35:51;;;;;;;4.93;2.17;;;27.40;50.90;;;;;;5007206;28;20034;-57
2022/07/18 11:38:17;;;;;;;7.18;2.28;;;27.50;51.00;;;;;;5004163;28;20026;-58
2022/07/18 11:40:50;;;;;;;5.22;2.20;;;27.50;51.00;;;;;;5022836;28;20033;-58
2022/07/18 11:43:25;;;;;;;4.88;2.13;;;27.50;51.00;;;;;;5006638;28;20025;-58
2022/07/18 11:46:07;;;;;;;3.53;1.80;;;27.50;50.90;;;;;;5007254;28;20121;-58
2022/07/18 11:48:34;;;;;;;4.55;1.80;;;27.50;50.90;;;;;;5006172;28;20037;-58
2022/07/18 11:51:00;;;;;;;7.03;2.05;;;27.50;50.90;;;;;;5007858;28;20414;-58
2022/07/18 11:53:26;;;;;;;5.25;1.88;;;27.60;50.90;;;;;;5007844;28;20026;-58
2022/07/18 11:55:52;;;;;;;4.97;1.88;;;27.60;50.90;;;;;;5003987;28;20096;-58
2022/07/18 11:58:18;;;;;;;3.70;1.90;;;27.50;50.90;;;;;;5006924;28;20454;-58
2022/07/18 12:00:45;;;;;;;4.40;2.15;;;27.60;50.80;;;;;;5005719;28;20030;-58
2022/07/18 12:03:15;;;;;;;4.97;1.92;;;27.60;50.80;;;;;;5007430;28;20199;-58
2022/07/18 12:05:49;;;;;;;4.28;2.10;;;27.60;50.80;;;;;;5005102;28;20443;-58
2022/07/18 12:08:24;;;;;;;4.07;2.00;;;27.60;50.80;;;;;;5005857;28;20042;-57
2022/07/18 12:11:18;;;;;;;4.88;2.00;;;27.60;50.70;;;;;;5007488;28;20581;-58
2022/07/18 12:13:52;;;;;;;5.55;2.00;;;27.70;50.70;;;;;;5001396;28;20032;-58
2022/07/18 12:16:37;;;;;;;3.70;1.98;;;27.70;50.70;;;;;;5006245;28;20560;-58
2022/07/18 12:19:08;;;;;;;5.25;2.13;;;27.70;51.70;;;;;;5003322;28;20062;-58
2022/07/18 12:21:47;;;;;;;4.50;1.90;;;27.70;50.60;;;;;;5007352;28;20026;-58
2022/07/18 12:24:22;;;;;;;6.95;2.05;;;27.70;50.50;;;;;;5004282;28;20034;-58
2022/07/18 12:26:48;;;;;;;4.75;2.25;;;27.70;50.50;;;;;;5005607;28;20026;-58
2022/07/18 12:29:13;;;;;;;3.78;2.00;;;27.70;50.40;;;;;;5019850;28;20034;-58
2022/07/18 12:31:43;;;;;;;4.97;2.13;;;27.70;50.40;;;;;;5005875;28;20029;-58
2022/07/18 12:34:10;;;;;;;4.07;1.90;;;27.80;50.40;;;;;;5006501;28;20025;-58
2022/07/18 12:36:57;;;;;;;4.72;2.00;;;27.80;50.40;;;;;;5006284;28;20100;-58
2022/07/18 12:39:30;;;;;;;3.50;1.85;;;27.80;50.40;;;;;;5003786;28;20025;-58
2022/07/18 12:41:56;;;;;;;4.90;1.90;;;27.80;50.20;;;;;;5004439;28;20483;-58
2022/07/18 12:44:21;;;;;;;4.70;1.77;;;27.80;50.20;;;;;;5019060;28;20036;-58
2022/07/18 12:46:47;;;;;;;3.42;1.90;;;27.90;50.20;;;;;;5005121;28;20033;-58
2022/07/18 12:49:13;;;;;;;4.88;1.83;;;27.90;50.20;;;;;;5005861;28;20064;-58
2022/07/18 12:51:39;;;;;;;4.97;2.20;;;27.90;50.20;;;;;;5004497;28;20046;-58
2022/07/18 12:54:04;;;;;;;4.57;1.80;;;27.90;50.10;;;;;;5007562;28;20053;-58